createdAt,value
2022-10-18T00:00:06.110Z,1.13
2022-10-18T00:02:32.564Z,0.88
2022-10-18T00:04:58.927Z,1.13
2022-10-18T00:07:25.230Z,1.15
2022-10-18T00:09:51.542Z,1.17
2022-10-18T00:12:18.434Z,1.40
2022-10-18T00:14:44.770Z,1.30
2022-10-18T00:17:11.085Z,1.30
2022-10-18T00:19:37.388Z,1.38
2022-10-18T00:22:03.736Z,1.60
2022-10-18T00:24:30.081Z,1.30
2022-10-18T00:26:56.459Z,1.17
2022-10-18T00:29:22.827Z,1.20
2022-10-18T00:31:49.177Z,1.58
2022-10-18T00:34:16.632Z,1.13
2022-10-18T00:36:44.122Z,1.53
2022-10-18T00:39:17.882Z,0.93
2022-10-18T00:41:44.601Z,1.48
2022-10-18T00:44:10.848Z,1.27
2022-10-18T00:46:42.455Z,0.98
2022-10-18T00:49:25.132Z,1.20
2022-10-18T00:52:05.586Z,1.00
2022-10-18T00:54:34.715Z,1.20
2022-10-18T00:57:01.738Z,1.48
2022-10-18T00:59:29.185Z,1.90
2022-10-18T01:01:55.531Z,1.70
2022-10-18T01:04:22.588Z,1.27
2022-10-18T01:07:10.360Z,1.27
2022-10-18T01:09:54.921Z,1.27
2022-10-18T01:12:45.381Z,1.17
2022-10-18T01:15:17.694Z,1.30
2022-10-18T01:18:01.603Z,1.15
2022-10-18T01:21:03.156Z,1.13
2022-10-18T01:24:03.147Z,1.38
2022-10-18T01:27:06.644Z,1.08
2022-10-18T01:30:20.176Z,1.30
2022-10-18T01:32:51.132Z,1.33
2022-10-18T01:35:23.768Z,1.00
2022-10-18T01:37:52.454Z,1.23
2022-10-18T01:40:22.096Z,1.10
2022-10-18T01:42:49.560Z,1.27
2022-10-18T01:45:16.964Z,1.20
2022-10-18T01:47:45.433Z,1.30
2022-10-18T01:50:12.591Z,1.35
2022-10-18T01:52:50.000Z,1.20
2022-10-18T01:55:16.542Z,1.50
2022-10-18T01:57:59.260Z,1.10
2022-10-18T02:00:39.015Z,0.85
2022-10-18T02:03:22.797Z,1.23
2022-10-18T02:05:58.817Z,1.02
2022-10-18T02:08:46.303Z,1.00
2022-10-18T02:11:15.378Z,0.93
2022-10-18T02:14:03.328Z,1.10
2022-10-18T02:16:35.897Z,1.23
2022-10-18T02:19:08.897Z,0.95
2022-10-18T02:21:37.925Z,1.10
2022-10-18T02:24:05.873Z,1.20
2022-10-18T02:26:32.388Z,1.05
2022-10-18T02:28:58.749Z,1.48
2022-10-18T02:31:43.204Z,1.08
2022-10-18T02:34:27.666Z,1.03
2022-10-18T02:36:57.880Z,1.40
2022-10-18T02:39:31.934Z,0.90
2022-10-18T02:41:59.408Z,1.33
2022-10-18T02:44:26.074Z,1.08
2022-10-18T02:46:53.109Z,0.70
2022-10-18T02:49:19.462Z,1.00
2022-10-18T02:51:45.773Z,1.20
2022-10-18T02:54:12.112Z,0.90
2022-10-18T02:56:38.412Z,1.08
2022-10-18T02:59:07.236Z,1.07
2022-10-18T03:01:35.965Z,1.05
2022-10-18T03:04:03.852Z,0.90
2022-10-18T03:06:30.571Z,1.05
2022-10-18T03:08:56.895Z,0.95
2022-10-18T03:11:23.330Z,1.10
2022-10-18T03:13:52.601Z,0.98
2022-10-18T03:16:19.169Z,1.08
2022-10-18T03:18:45.704Z,0.95
2022-10-18T03:21:12.210Z,0.70
2022-10-18T03:23:38.572Z,1.10
2022-10-18T03:26:05.017Z,1.00
2022-10-18T03:28:31.415Z,0.90
2022-10-18T03:31:02.317Z,0.80
2022-10-18T03:33:30.015Z,0.85
2022-10-18T03:35:56.435Z,0.80
2022-10-18T03:38:22.967Z,1.05
2022-10-18T03:40:49.288Z,0.73
2022-10-18T03:43:15.765Z,0.90
2022-10-18T03:45:42.151Z,0.95
2022-10-18T03:48:08.450Z,1.10
2022-10-18T03:50:34.841Z,0.93
2022-10-18T03:53:01.170Z,0.73
2022-10-18T03:55:27.472Z,0.95
2022-10-18T03:57:53.934Z,0.90
2022-10-18T04:00:20.615Z,0.70
2022-10-18T04:02:49.520Z,0.90
2022-10-18T04:05:17.347Z,0.85
2022-10-18T04:07:43.653Z,1.02
2022-10-18T04:10:10.009Z,0.98
2022-10-18T04:12:36.359Z,0.70
2022-10-18T04:15:03.149Z,0.90
2022-10-18T04:17:29.646Z,0.88
2022-10-18T04:19:56.163Z,0.70
2022-10-18T04:22:22.619Z,0.90
2022-10-18T04:24:48.978Z,0.63
2022-10-18T04:27:15.355Z,0.73
2022-10-18T04:29:41.695Z,0.80
2022-10-18T04:32:07.995Z,0.70
2022-10-18T04:34:34.321Z,0.70
2022-10-18T04:37:00.697Z,0.53
2022-10-18T04:39:27.067Z,0.80
2022-10-18T04:41:53.387Z,0.60
2022-10-18T04:44:19.694Z,0.60
2022-10-18T04:46:46.024Z,0.60
2022-10-18T04:49:12.336Z,0.70
2022-10-18T04:51:38.658Z,0.98
2022-10-18T04:54:05.100Z,0.70
2022-10-18T04:56:32.043Z,0.63
2022-10-18T04:58:59.524Z,0.60
2022-10-18T05:01:25.979Z,0.50
2022-10-18T05:03:54.246Z,0.63
2022-10-18T05:06:21.706Z,0.70
2022-10-18T05:08:49.247Z,0.50
2022-10-18T05:11:15.604Z,0.50
2022-10-18T05:13:41.916Z,0.60
2022-10-18T05:16:08.231Z,0.55
2022-10-18T05:18:34.602Z,0.50
2022-10-18T05:21:00.906Z,0.60
2022-10-18T05:23:27.243Z,0.40
2022-10-18T05:25:54.113Z,0.70
2022-10-18T05:28:38.712Z,0.50
2022-10-18T05:31:07.788Z,0.68
2022-10-18T05:33:34.886Z,0.73
2022-10-18T05:36:02.042Z,0.60
2022-10-18T05:38:30.828Z,0.50
2022-10-18T05:40:57.900Z,0.50
2022-10-18T05:43:28.480Z,0.47
2022-10-18T05:45:54.918Z,0.40
2022-10-18T05:48:21.358Z,0.50
2022-10-18T05:50:47.713Z,0.37
2022-10-18T05:53:35.160Z,0.40
2022-10-18T05:56:03.346Z,0.50
2022-10-18T05:58:29.713Z,0.50
2022-10-18T06:00:59.832Z,0.50
2022-10-18T06:03:27.596Z,0.60
2022-10-18T06:05:59.805Z,0.68
2022-10-18T06:08:26.156Z,0.50
2022-10-18T06:10:52.524Z,0.50
2022-10-18T06:13:18.837Z,0.63
2022-10-18T06:15:45.352Z,0.50
2022-10-18T06:18:11.649Z,0.60
2022-10-18T06:20:38.004Z,0.50
2022-10-18T06:23:04.325Z,0.73
2022-10-18T06:25:30.651Z,0.47
2022-10-18T06:27:56.959Z,0.60
2022-10-18T06:30:23.274Z,0.70
2022-10-18T06:32:49.586Z,0.50
2022-10-18T06:35:16.143Z,0.60
2022-10-18T06:40:13.932Z,0.50
2022-10-18T06:42:40.400Z,0.80
2022-10-18T06:45:07.317Z,0.60
2022-10-18T06:47:33.624Z,0.73
2022-10-18T06:49:59.953Z,0.55
2022-10-18T06:52:26.369Z,0.40
2022-10-18T06:54:52.823Z,0.73
2022-10-18T06:57:20.418Z,0.45
2022-10-18T06:59:46.812Z,0.40
2022-10-18T07:02:19.463Z,0.50
2022-10-18T07:04:45.794Z,0.50
2022-10-18T07:07:12.088Z,1.00
2022-10-18T07:09:38.530Z,0.60
2022-10-18T07:12:05.137Z,0.57
2022-10-18T07:14:31.441Z,0.57
2022-10-18T07:17:00.920Z,0.87
2022-10-18T07:19:27.662Z,0.60
2022-10-18T07:21:54.080Z,0.47
2022-10-18T07:24:20.551Z,0.45
2022-10-18T07:26:46.944Z,0.47
2022-10-18T07:29:13.314Z,0.70
2022-10-18T07:31:40.737Z,0.77
2022-10-18T07:34:10.555Z,0.50
2022-10-18T07:36:36.967Z,0.60
2022-10-18T07:39:03.971Z,0.50
2022-10-18T07:41:33.088Z,0.60
2022-10-18T07:44:00.443Z,0.50
2022-10-18T07:46:26.928Z,0.50
2022-10-18T07:48:53.280Z,0.68
2022-10-18T07:51:22.265Z,0.50
2022-10-18T07:53:48.604Z,0.70
2022-10-18T07:56:20.595Z,0.60
2022-10-18T07:58:51.160Z,0.50
2022-10-18T08:01:18.867Z,0.50
2022-10-18T08:03:45.500Z,0.82
2022-10-18T08:06:13.460Z,0.57
2022-10-18T08:08:41.007Z,0.50
2022-10-18T08:11:10.270Z,0.70
2022-10-18T08:13:36.811Z,0.60
2022-10-18T08:16:09.135Z,0.55
2022-10-18T08:18:36.521Z,0.53
2022-10-18T08:21:05.803Z,0.60
2022-10-18T08:23:32.377Z,0.70
2022-10-18T08:26:03.636Z,0.80
2022-10-18T08:28:30.111Z,0.70
2022-10-18T08:30:56.544Z,0.50
2022-10-18T08:33:23.457Z,0.60
2022-10-18T08:36:00.893Z,0.40
2022-10-18T08:38:30.152Z,0.60
2022-10-18T08:40:56.771Z,0.50
2022-10-18T08:43:59.489Z,0.60
2022-10-18T08:46:28.291Z,0.47
2022-10-18T08:48:56.686Z,0.50
2022-10-18T08:51:44.779Z,0.95
2022-10-18T08:54:14.246Z,0.50
2022-10-18T08:56:47.575Z,0.50
2022-10-18T08:59:13.990Z,0.65
2022-10-18T09:02:21.536Z,0.52
2022-10-18T09:05:08.984Z,0.60
2022-10-18T09:07:44.213Z,0.40
2022-10-18T09:10:29.894Z,0.50
2022-10-18T09:13:34.750Z,0.88
2022-10-18T09:16:07.672Z,0.50
2022-10-18T09:18:43.179Z,0.60
2022-10-18T09:21:28.448Z,0.80
2022-10-18T09:24:10.245Z,1.10
2022-10-18T09:26:52.645Z,0.70
2022-10-18T09:29:37.929Z,0.50
2022-10-18T09:32:22.499Z,0.60
2022-10-18T09:35:21.068Z,0.35
2022-10-18T09:37:49.364Z,0.60
2022-10-18T09:40:21.334Z,0.65
2022-10-18T09:42:55.637Z,0.75
2022-10-18T09:45:27.639Z,0.52
2022-10-18T09:48:08.430Z,0.60
2022-10-18T09:50:53.088Z,0.43
2022-10-18T09:54:04.399Z,0.60
2022-10-18T09:56:41.928Z,0.45
2022-10-18T09:59:29.531Z,0.50
2022-10-18T10:01:56.021Z,0.60
2022-10-18T10:04:22.448Z,0.60
2022-10-18T10:06:53.977Z,0.50
2022-10-18T10:09:35.994Z,0.50
2022-10-18T10:12:02.384Z,0.45
2022-10-18T10:14:30.632Z,0.75
2022-10-18T10:16:59.867Z,0.47
2022-10-18T10:19:33.203Z,0.50
2022-10-18T10:22:26.245Z,0.50
2022-10-18T10:24:54.607Z,0.40
2022-10-18T10:27:43.739Z,0.47
2022-10-18T10:30:31.648Z,0.70
2022-10-18T10:32:58.024Z,0.60
2022-10-18T10:35:54.452Z,0.50
2022-10-18T10:38:25.693Z,0.57
2022-10-18T10:40:52.279Z,0.50
2022-10-18T10:43:36.639Z,1.70
2022-10-18T10:46:13.802Z,0.50
2022-10-18T10:49:04.170Z,0.50
2022-10-18T10:51:40.098Z,0.50
2022-10-18T10:54:13.932Z,0.65
2022-10-18T10:57:11.158Z,0.60
2022-10-18T10:59:50.065Z,0.93
2022-10-18T11:02:20.532Z,0.40
2022-10-18T11:04:49.947Z,0.30
2022-10-18T11:07:27.369Z,0.30
2022-10-18T11:10:01.718Z,0.50
2022-10-18T11:12:42.755Z,1.50
2022-10-18T11:15:23.528Z,0.40
2022-10-18T11:18:23.812Z,0.57
2022-10-18T11:20:59.906Z,0.63
2022-10-18T11:23:31.550Z,0.60
2022-10-18T11:26:12.784Z,0.60
2022-10-18T11:28:52.565Z,0.57
2022-10-18T11:31:29.286Z,0.50
2022-10-18T11:34:21.281Z,0.40
2022-10-18T11:37:27.315Z,0.30
2022-10-18T11:40:10.975Z,0.40
2022-10-18T11:42:54.228Z,0.30
2022-10-18T11:45:38.273Z,0.38
2022-10-18T11:48:42.888Z,0.60
2022-10-18T11:51:29.632Z,0.30
2022-10-18T11:54:05.043Z,0.40
2022-10-18T11:56:45.366Z,0.50
2022-10-18T11:59:29.847Z,0.40
2022-10-18T12:02:44.565Z,0.50
2022-10-18T12:05:23.220Z,0.40
2022-10-18T12:08:02.275Z,0.43
2022-10-18T12:10:52.704Z,0.40
2022-10-18T12:13:27.880Z,0.50
2022-10-18T12:15:55.475Z,0.47
2022-10-18T12:18:25.860Z,0.40
2022-10-18T12:20:55.882Z,0.50
2022-10-18T12:23:47.093Z,0.30
2022-10-18T12:26:13.858Z,0.40
2022-10-18T12:29:17.128Z,0.50
2022-10-18T12:31:48.140Z,0.50
2022-10-18T12:34:23.619Z,0.75
2022-10-18T12:36:55.677Z,0.40
2022-10-18T12:39:38.860Z,0.35
2022-10-18T12:42:23.100Z,0.40
2022-10-18T12:44:59.897Z,0.60
2022-10-18T12:47:27.180Z,0.30
2022-10-18T12:49:58.609Z,0.30
2022-10-18T12:52:28.765Z,0.43
2022-10-18T12:55:03.577Z,0.50
2022-10-18T12:57:51.750Z,0.30
2022-10-18T13:00:30.483Z,0.40
2022-10-18T13:03:08.951Z,0.22
2022-10-18T13:05:56.025Z,0.25
2022-10-18T13:08:34.723Z,0.30
2022-10-18T13:11:10.090Z,0.30
2022-10-18T13:16:47.012Z,0.30
2022-10-18T13:19:20.457Z,0.30
2022-10-18T13:22:08.456Z,0.30
2022-10-18T13:24:46.992Z,0.30
2022-10-18T13:27:42.532Z,0.40
2022-10-18T13:30:24.396Z,1.40
2022-10-18T13:32:59.096Z,0.40
2022-10-18T13:35:49.116Z,0.30
2022-10-18T13:38:27.924Z,0.30
2022-10-18T13:41:21.597Z,0.30
2022-10-18T13:43:57.629Z,0.32
2022-10-18T13:46:32.946Z,1.08
2022-10-18T13:49:33.318Z,0.50
2022-10-18T13:52:05.784Z,0.30
2022-10-18T13:54:46.807Z,0.35
2022-10-18T13:57:29.489Z,0.40
2022-10-18T14:00:13.555Z,0.25
2022-10-18T14:02:56.962Z,0.52
2022-10-18T14:05:43.951Z,0.30
2022-10-18T14:08:15.540Z,0.52
2022-10-18T14:11:02.017Z,0.50
2022-10-18T14:13:38.377Z,0.30
2022-10-18T14:16:40.165Z,0.20
2022-10-18T14:19:36.697Z,0.50
2022-10-18T14:22:23.608Z,0.38
2022-10-18T14:24:54.152Z,0.30
2022-10-18T14:27:23.725Z,0.30
2022-10-18T14:30:06.309Z,1.10
2022-10-18T14:32:32.995Z,0.30
2022-10-18T14:35:31.733Z,0.20
2022-10-18T14:37:51.594Z,0.43
2022-10-18T14:40:39.938Z,0.25
2022-10-18T14:43:08.999Z,0.60
2022-10-18T14:45:35.318Z,0.80
2022-10-18T14:48:12.822Z,0.30
2022-10-18T14:50:39.178Z,0.20
2022-10-18T14:53:16.225Z,0.93
2022-10-18T14:55:43.007Z,0.55
2022-10-18T14:58:16.021Z,0.50
2022-10-18T15:00:45.117Z,0.40
2022-10-18T15:03:16.848Z,0.40
2022-10-18T15:06:00.762Z,0.30
2022-10-18T15:08:35.229Z,0.30
2022-10-18T15:11:01.800Z,0.27
2022-10-18T15:13:29.599Z,0.40
2022-10-18T15:15:56.438Z,0.45
2022-10-18T15:18:25.502Z,0.55
2022-10-18T15:21:23.926Z,0.40
2022-10-18T15:23:51.505Z,0.30
2022-10-18T15:26:29.868Z,0.40
2022-10-18T15:29:01.452Z,0.40
2022-10-18T15:31:37.259Z,0.30
2022-10-18T15:34:11.739Z,0.30
2022-10-18T15:36:38.458Z,0.60
2022-10-18T15:39:15.720Z,0.68
2022-10-18T15:41:50.971Z,0.57
2022-10-18T15:44:26.418Z,0.30
2022-10-18T15:46:56.341Z,0.20
2022-10-18T15:49:44.324Z,0.20
2022-10-18T15:52:37.525Z,0.20
2022-10-18T15:55:28.940Z,0.28
2022-10-18T15:58:23.170Z,0.30
2022-10-18T16:00:51.606Z,0.22
2022-10-18T16:03:19.384Z,0.40
2022-10-18T16:05:46.100Z,0.35
2022-10-18T16:08:23.643Z,0.35
2022-10-18T16:10:50.592Z,0.30
2022-10-18T16:13:17.654Z,0.50
2022-10-18T16:15:44.120Z,0.50
2022-10-18T16:18:15.912Z,0.80
2022-10-18T16:20:42.972Z,0.32
2022-10-18T16:23:20.863Z,0.40
2022-10-18T16:25:47.635Z,0.50
2022-10-18T16:28:16.013Z,0.50
2022-10-18T16:30:45.293Z,1.50
2022-10-18T16:33:11.869Z,0.40
2022-10-18T16:35:38.256Z,0.50
2022-10-18T16:38:04.848Z,0.30
2022-10-18T16:40:31.165Z,0.40
2022-10-18T16:42:57.476Z,0.47
2022-10-18T16:45:23.811Z,0.60
2022-10-18T16:47:50.179Z,0.40
2022-10-18T16:50:19.358Z,0.40
2022-10-18T16:52:45.662Z,0.30
2022-10-18T16:55:24.868Z,0.57
2022-10-18T16:57:51.580Z,0.47
2022-10-18T17:00:21.780Z,0.45
2022-10-18T17:02:49.182Z,0.32
2022-10-18T17:05:17.068Z,0.30
2022-10-18T17:07:44.209Z,0.50
2022-10-18T17:10:15.804Z,0.30
2022-10-18T17:12:42.423Z,0.50
2022-10-18T17:15:09.960Z,0.60
2022-10-18T17:17:37.095Z,0.30
2022-10-18T17:20:05.592Z,0.40
2022-10-18T17:22:32.390Z,0.38
2022-10-18T17:24:58.733Z,0.50
2022-10-18T17:27:25.084Z,0.30
2022-10-18T17:29:51.402Z,0.30
2022-10-18T17:32:17.765Z,0.70
2022-10-18T17:34:44.195Z,0.40
2022-10-18T17:37:10.696Z,0.50
2022-10-18T17:39:37.062Z,0.47
2022-10-18T17:42:03.511Z,0.47
2022-10-18T17:44:29.920Z,0.45
2022-10-18T17:46:56.266Z,0.20
2022-10-18T17:49:22.594Z,0.40
2022-10-18T17:51:49.024Z,0.43
2022-10-18T17:54:15.449Z,0.50
2022-10-18T17:56:41.952Z,0.50
2022-10-18T17:59:08.717Z,0.60
2022-10-18T18:01:35.176Z,0.55
2022-10-18T18:04:03.092Z,0.30
2022-10-18T18:06:36.111Z,1.23
2022-10-18T18:09:08.802Z,0.30
2022-10-18T18:11:36.554Z,0.55
2022-10-18T18:14:08.267Z,0.47
2022-10-18T18:16:37.002Z,0.50
2022-10-18T18:19:08.807Z,0.40
2022-10-18T18:21:36.545Z,0.60
2022-10-18T18:24:03.331Z,0.40
2022-10-18T18:26:34.428Z,0.57
2022-10-18T18:29:04.209Z,0.40
2022-10-18T18:31:34.360Z,0.40
2022-10-18T18:34:05.031Z,0.63
2022-10-18T18:36:32.446Z,0.50
2022-10-18T18:38:58.927Z,0.43
2022-10-18T18:41:26.573Z,0.45
2022-10-18T18:44:04.977Z,0.30
2022-10-18T18:46:36.507Z,0.43
2022-10-18T18:49:03.317Z,0.60
2022-10-18T18:51:30.033Z,0.50
2022-10-18T18:53:56.353Z,0.60
2022-10-18T18:56:24.858Z,0.57
2022-10-18T18:58:52.319Z,0.40
2022-10-18T19:01:27.749Z,0.40
2022-10-18T19:03:56.067Z,0.73
2022-10-18T19:06:36.559Z,0.40
2022-10-18T19:09:05.573Z,0.50
2022-10-18T19:11:35.405Z,0.25
2022-10-18T19:14:02.748Z,0.43
2022-10-18T19:16:31.443Z,0.40
2022-10-18T19:18:59.849Z,0.45
2022-10-18T19:21:29.360Z,0.40
2022-10-18T19:23:56.597Z,0.40
2022-10-18T19:26:24.610Z,0.40
2022-10-18T19:28:50.965Z,0.30
2022-10-18T19:31:17.318Z,0.50
2022-10-18T19:33:48.744Z,0.40
2022-10-18T19:36:22.100Z,0.40
2022-10-18T19:38:48.509Z,0.40
2022-10-18T19:41:14.884Z,0.30
2022-10-18T19:43:41.247Z,0.40
2022-10-18T19:46:07.598Z,0.50
2022-10-18T19:48:33.908Z,0.60
2022-10-18T19:51:05.889Z,0.60
2022-10-18T19:53:34.135Z,0.45
2022-10-18T19:56:02.181Z,0.43
2022-10-18T19:58:28.657Z,0.40
2022-10-18T20:00:55.917Z,0.60
2022-10-18T20:03:24.211Z,0.70
2022-10-18T20:05:55.768Z,0.60
2022-10-18T20:08:22.920Z,0.55
2022-10-18T20:10:49.341Z,0.40
2022-10-18T20:13:15.737Z,0.57
2022-10-18T20:15:42.040Z,0.52
2022-10-18T20:18:08.419Z,0.40
2022-10-18T20:20:36.758Z,0.68
2022-10-18T20:23:04.023Z,0.70
2022-10-18T20:25:30.349Z,0.80
2022-10-18T20:27:56.708Z,0.75
2022-10-18T20:30:23.025Z,0.55
2022-10-18T20:32:51.756Z,0.70
2022-10-18T20:35:18.377Z,0.50
2022-10-18T20:37:47.479Z,0.70
2022-10-18T20:40:14.424Z,0.90
2022-10-18T20:42:41.216Z,0.80
2022-10-18T20:45:08.300Z,0.80
2022-10-18T20:47:35.525Z,0.70
2022-10-18T20:50:03.057Z,0.60
2022-10-18T20:52:29.390Z,0.88
2022-10-18T20:54:55.701Z,0.82
2022-10-18T20:57:22.107Z,0.88
2022-10-18T20:59:48.731Z,1.07
2022-10-18T21:02:15.180Z,0.60
2022-10-18T21:04:42.389Z,0.60
2022-10-18T21:07:08.855Z,0.80
2022-10-18T21:09:35.156Z,0.90
2022-10-18T21:12:01.538Z,0.97
2022-10-18T21:14:27.956Z,1.20
2022-10-18T21:16:54.303Z,0.73
2022-10-18T21:19:26.077Z,1.13
2022-10-18T21:21:55.095Z,1.10
2022-10-18T21:24:23.317Z,1.00
2022-10-18T21:26:49.912Z,0.75
2022-10-18T21:29:21.632Z,0.90
2022-10-18T21:31:48.729Z,1.23
2022-10-18T21:34:17.291Z,1.10
2022-10-18T21:36:45.156Z,1.00
2022-10-18T21:39:18.042Z,1.00
2022-10-18T21:41:45.292Z,0.80
2022-10-18T21:44:12.457Z,1.30
2022-10-18T21:46:39.940Z,1.45
2022-10-18T21:49:07.224Z,0.90
2022-10-18T21:51:33.514Z,0.77
2022-10-18T21:53:59.907Z,1.15
2022-10-18T21:56:31.763Z,1.13
2022-10-18T21:58:58.475Z,1.30
2022-10-18T22:01:27.878Z,1.40
2022-10-18T22:03:56.470Z,1.40
2022-10-18T22:06:23.454Z,1.35
2022-10-18T22:08:53.655Z,2.88
2022-10-18T22:11:23.400Z,1.30
2022-10-18T22:13:50.220Z,1.27
2022-10-18T22:16:17.217Z,1.40
2022-10-18T22:18:45.398Z,1.52
2022-10-18T22:21:13.793Z,1.42
2022-10-18T22:23:43.479Z,1.90
2022-10-18T22:26:13.126Z,1.63
2022-10-18T22:28:40.782Z,1.50
2022-10-18T22:31:22.837Z,1.98
2022-10-18T22:33:56.299Z,1.70
2022-10-18T22:36:23.832Z,1.65
2022-10-18T22:38:50.492Z,1.73
2022-10-18T22:41:17.680Z,2.75
2022-10-18T22:43:44.449Z,1.70
2022-10-18T22:46:12.792Z,1.60
2022-10-18T22:48:39.474Z,1.80
2022-10-18T22:51:06.826Z,2.03
2022-10-18T22:53:34.139Z,2.40
2022-10-18T22:56:00.471Z,2.50
2022-10-18T22:58:26.907Z,2.20
2022-10-18T23:01:10.057Z,2.00
2022-10-18T23:03:37.175Z,2.50
2022-10-18T23:06:04.665Z,2.08
2022-10-18T23:08:31.995Z,1.98
2022-10-18T23:10:59.700Z,2.15
2022-10-18T23:13:27.328Z,2.67
2022-10-18T23:16:04.201Z,1.97
2022-10-18T23:18:32.872Z,2.00
2022-10-18T23:21:08.168Z,2.25
2022-10-18T23:23:36.095Z,1.58
2022-10-18T23:26:04.459Z,1.73
2022-10-18T23:28:34.741Z,2.00
2022-10-18T23:31:09.392Z,2.25
2022-10-18T23:33:36.019Z,1.95
2022-10-18T23:36:02.836Z,2.00
2022-10-18T23:38:30.444Z,2.30
2022-10-18T23:40:57.240Z,2.10
2022-10-18T23:43:23.764Z,1.90
2022-10-18T23:45:50.133Z,1.92
2022-10-18T23:48:16.448Z,2.03
2022-10-18T23:50:43.553Z,1.90
2022-10-18T23:53:10.384Z,2.10
2022-10-18T23:55:36.797Z,2.30
2022-10-18T23:58:03.204Z,2.15
